Martinsburg, Nebraska
Current Conditions -  °F | °C
As of 6:16 AM on Sunday 21 Dec 2014 (Local Time) from KSUX Reporting Station
Haze Haze  
Wind Chill: 30°   Ceiling: 200
Heat Index: 37°   Visibility: 1.7mi
Dew Point: 36°   Wind: 10mph
Humidity: 96%   Direction: 180°S
Pressure: 29.85"   Gusts: NA
Location:  42.5817°N, 96.7269°W
Report Text: KSUX 211216Z 18009KT 1 3/4SM R31/6000VP6000FT BR OVC002 03/02 A2985 RMK AO2 T00280022
Loading
Personal Weather Stations






























Interactive Weather Map New forecast layout! Learn more

10-Day Weather Forecast

Advertisements
Track Severe Weather on mobile